createdAt,value
2023-03-06T00:05:25.199Z,94.00
2023-03-06T00:15:24.121Z,94.20
2023-03-06T00:25:23.039Z,94.30
2023-03-06T00:35:22.047Z,94.40
2023-03-06T00:45:21.054Z,94.50
2023-03-06T00:55:20.378Z,94.50
2023-03-06T01:05:19.010Z,94.60
2023-03-06T01:15:18.181Z,94.80
2023-03-06T01:25:17.024Z,94.80
2023-03-06T01:35:16.075Z,95.00
2023-03-06T01:45:15.046Z,94.90
2023-03-06T01:55:14.161Z,95.30
2023-03-06T02:05:13.340Z,95.70
2023-03-06T02:15:12.093Z,95.90
2023-03-06T02:25:11.097Z,96.00
2023-03-06T02:35:10.146Z,96.20
2023-03-06T02:45:09.014Z,96.40
2023-03-06T02:55:08.750Z,96.40
2023-03-06T03:05:09.017Z,96.50
2023-03-06T03:15:08.097Z,96.50
2023-03-06T03:25:07.174Z,96.60
2023-03-06T03:35:06.774Z,96.80
2023-03-06T03:45:06.191Z,96.90
2023-03-06T03:55:05.592Z,97.00
2023-03-06T04:05:05.143Z,97.10
2023-03-06T04:15:04.812Z,96.90
2023-03-06T04:25:04.394Z,97.20
2023-03-06T04:35:05.100Z,97.10
2023-03-06T04:45:04.314Z,97.00
2023-03-06T04:55:05.358Z,96.70
2023-03-06T05:05:04.256Z,96.70
2023-03-06T05:15:03.298Z,96.90
2023-03-06T05:25:02.643Z,96.90
2023-03-06T05:35:01.191Z,96.80
2023-03-06T05:45:00.274Z,96.70
2023-03-06T05:54:59.279Z,96.70
2023-03-06T06:04:58.418Z,96.80
2023-03-06T06:14:57.184Z,96.80
2023-03-06T06:24:56.099Z,96.90
2023-03-06T06:34:55.066Z,96.80
2023-03-06T06:44:54.418Z,96.40
2023-03-06T06:54:53.395Z,96.10
2023-03-06T07:05:04.315Z,95.70
2023-03-06T07:14:56.380Z,95.20
2023-03-06T07:24:55.103Z,94.80
2023-03-06T07:35:03.189Z,94.80
2023-03-06T07:44:55.388Z,94.30
2023-03-06T07:54:54.212Z,93.40
2023-03-06T08:04:53.300Z,93.40
2023-03-06T08:14:52.286Z,93.30
2023-03-06T08:24:51.225Z,93.40
2023-03-06T08:34:50.388Z,92.50
2023-03-06T08:44:49.332Z,93.00
2023-03-06T08:54:48.171Z,92.80
2023-03-06T09:04:47.234Z,92.00
2023-03-06T09:14:46.160Z,91.90
2023-03-06T09:24:45.312Z,91.90
2023-03-06T09:34:44.478Z,92.00
2023-03-06T09:44:44.012Z,91.80
2023-03-06T09:54:43.453Z,92.00
2023-03-06T10:04:42.273Z,92.50
2023-03-06T10:14:41.451Z,92.70
2023-03-06T10:24:40.317Z,92.70
2023-03-06T10:34:39.618Z,93.20
2023-03-06T10:44:38.305Z,93.60
2023-03-06T10:54:37.230Z,93.20
2023-03-06T11:04:36.559Z,92.40
2023-03-06T11:14:35.320Z,92.30
2023-03-06T11:24:34.377Z,92.90
2023-03-06T11:34:33.424Z,93.10
2023-03-06T11:44:32.283Z,93.10
2023-03-06T11:54:31.211Z,93.30
2023-03-06T12:04:30.331Z,93.20
2023-03-06T12:14:29.912Z,93.10
2023-03-06T12:24:29.272Z,93.10
2023-03-06T12:34:28.437Z,92.90
2023-03-06T12:44:27.375Z,92.40
2023-03-06T12:54:26.420Z,91.80
2023-03-06T13:04:25.386Z,90.10
2023-03-06T13:14:24.431Z,89.80
2023-03-06T13:24:23.568Z,87.60
2023-03-06T13:34:22.284Z,87.40
2023-03-06T13:44:21.340Z,88.30
2023-03-06T13:54:20.628Z,88.20
2023-03-06T14:04:19.356Z,87.90
2023-03-06T14:14:18.372Z,86.80
2023-03-06T14:24:17.323Z,85.40
2023-03-06T14:34:16.511Z,85.50
2023-03-06T14:44:17.421Z,86.40
2023-03-06T14:54:16.555Z,86.00
2023-03-06T15:04:15.352Z,85.60
2023-03-06T15:14:14.397Z,85.80
2023-03-06T15:24:13.735Z,86.40
2023-03-06T15:34:12.429Z,85.60
2023-03-06T15:44:11.445Z,86.50
2023-03-06T15:54:12.655Z,86.80
2023-03-06T16:04:11.523Z,87.60
2023-03-06T16:14:10.637Z,87.40
2023-03-06T16:24:09.477Z,86.80
2023-03-06T16:34:08.524Z,86.70
2023-03-06T16:44:09.368Z,86.80
2023-03-06T16:54:08.653Z,87.10
2023-03-06T17:04:07.789Z,87.80
2023-03-06T17:14:06.846Z,88.00
2023-03-06T17:24:05.460Z,88.30
2023-03-06T17:34:04.629Z,88.40
2023-03-06T17:44:03.662Z,88.50
2023-03-06T17:54:02.612Z,88.50
2023-03-06T18:04:03.327Z,88.60
2023-03-06T18:14:05.450Z,88.90
2023-03-06T18:24:04.682Z,89.00
2023-03-06T18:34:03.702Z,89.00
2023-03-06T18:44:02.676Z,88.80
2023-03-06T18:54:01.701Z,89.00
2023-03-06T19:04:00.995Z,88.70
2023-03-06T19:13:59.592Z,88.40
2023-03-06T19:23:58.768Z,87.90
2023-03-06T19:33:57.843Z,87.00
2023-03-06T19:43:57.850Z,86.20
2023-03-06T19:53:56.913Z,85.50
2023-03-06T20:03:58.218Z,85.30
2023-03-06T20:13:57.794Z,84.40
2023-03-06T20:23:57.700Z,83.90
2023-03-06T20:33:56.750Z,83.40
2023-03-06T20:43:55.467Z,83.00
2023-03-06T20:53:54.583Z,82.60
2023-03-06T21:03:53.577Z,85.00
2023-03-06T21:13:52.567Z,86.00
2023-03-06T21:23:51.703Z,86.10
2023-03-06T21:33:50.838Z,86.20
2023-03-06T21:43:49.621Z,86.70
2023-03-06T21:53:48.642Z,87.10
2023-03-06T22:03:47.675Z,88.40
2023-03-06T22:13:47.625Z,90.00
2023-03-06T22:23:46.611Z,90.90
2023-03-06T22:33:45.637Z,91.20
2023-03-06T22:43:44.688Z,91.20
2023-03-06T22:53:43.726Z,91.40
2023-03-06T23:03:42.986Z,91.50
2023-03-06T23:14:00.193Z,91.60
2023-03-06T23:23:59.629Z,93.30
2023-03-06T23:33:58.873Z,94.60
2023-03-06T23:43:57.622Z,95.80
2023-03-06T23:53:56.667Z,96.80
